Time;durP1;ratioP1;P1;durP2;ratioP2;P2;SDS_P1;SDS_P2;PMS_P1;PMS_P2;Temp;Humidity;BMP_temperature;BMP_pressure;BME280_temperature;BME280_humidity;BME280_pressure;Samples;Min_cycle;Max_cycle;Signal;HPM_P1;HPM_P2
2022/05/09 00:02:14;;;;;;;21.23;18.03;;;;;;;;;;5042941;28;20907;-81
2022/05/09 00:04:40;;;;;;;27.03;18.47;;;;;;;;;;5042454;28;20536;-81
2022/05/09 00:07:07;;;;;;;22.50;15.57;;;;;;;;;;5043321;28;20445;-81
2022/05/09 00:09:33;;;;;;;20.60;18.50;;;;;;;;;;5043241;28;20409;-81
2022/05/09 00:11:59;;;;;;;28.53;17.37;;;;;;;;;;5042833;28;20406;-81
2022/05/09 00:14:25;;;;;;;23.33;17.60;;;;;;;;;;5044879;28;20406;-81
2022/05/09 00:16:52;;;;;;;25.93;18.43;;;;;;;;;;5046319;28;20427;-81
2022/05/09 00:19:20;;;;;;;22.40;18.17;;;;;;;;;;5044936;28;20490;-81
2022/05/09 00:21:47;;;;;;;20.93;18.63;;;;;;;;;;5045939;28;20854;-80
2022/05/09 00:24:15;;;;;;;22.90;20.40;;;;;;;;;;5045429;28;20449;-81
2022/05/09 00:26:42;;;;;;;24.00;18.47;;;;;;;;;;5049280;28;20449;-80
2022/05/09 00:29:10;;;;;;;23.07;19.00;;;;;;;;;;5054072;28;20433;-80
2022/05/09 00:31:36;;;;;;;24.37;20.67;;;;;;;;;;5048751;28;20425;-80
2022/05/09 00:34:03;;;;;;;20.33;17.67;;;;;;;;;;5045799;28;20441;-81
2022/05/09 00:36:30;;;;;;;25.80;18.03;;;;;;;;;;5045354;28;20450;-81
2022/05/09 00:38:58;;;;;;;22.97;20.20;;;;;;;;;;5044510;28;20476;-81
2022/05/09 00:41:34;;;;;;;21.97;18.73;;;;;;;;;;5045045;28;20421;-81
2022/05/09 00:44:20;;;;;;;22.30;20.00;;;;;;;;;;5045996;28;20565;-80
2022/05/09 00:46:48;;;;;;;22.23;18.60;;;;;;;;;;5045489;28;20486;-81
2022/05/09 00:49:34;;;;;;;20.50;18.40;;;;;;;;;;5045156;28;20481;-80
2022/05/09 00:52:00;;;;;;;24.07;19.63;;;;;;;;;;5046246;28;20404;-80
2022/05/09 00:54:27;;;;;;;24.30;19.47;;;;;;;;;;5045665;28;20403;-80
2022/05/09 00:56:58;;;;;;;26.03;20.30;;;;;;;;;;5045570;28;20406;-81
2022/05/09 00:59:25;;;;;;;23.90;20.50;;;;;;;;;;5045928;28;20394;-80
2022/05/09 01:01:51;;;;;;;25.50;22.37;;;;;;;;;;5047620;28;20418;-80
2022/05/09 01:04:19;;;;;;;26.53;20.97;;;;;;;;;;5046047;28;20449;-81
2022/05/09 01:06:46;;;;;;;27.17;21.47;;;;;;;;;;5046017;28;20433;-82
2022/05/09 01:09:12;;;;;;;22.40;19.03;;;;;;;;;;5044213;28;20410;-81
2022/05/09 01:11:42;;;;;;;21.37;19.07;;;;;;;;;;5039401;28;20418;-80
2022/05/09 01:14:11;;;;;;;20.87;18.27;;;;;;;;;;5038196;28;20398;-81
2022/05/09 01:16:39;;;;;;;19.53;16.47;;;;;;;;;;5043817;28;20405;-81
2022/05/09 01:19:13;;;;;;;20.80;17.60;;;;;;;;;;5042023;28;20466;-81
2022/05/09 01:21:40;;;;;;;20.17;17.97;;;;;;;;;;5048310;28;20448;-81
2022/05/09 01:24:14;;;;;;;19.13;17.23;;;;;;;;;;5050141;28;20450;-81
2022/05/09 01:26:40;;;;;;;20.53;17.17;;;;;;;;;;5046035;28;20617;-81
2022/05/09 01:29:11;;;;;;;22.00;18.50;;;;;;;;;;5043886;28;20431;-81
2022/05/09 01:31:37;;;;;;;21.40;18.47;;;;;;;;;;5043111;28;20393;-81
2022/05/09 01:34:03;;;;;;;26.53;19.43;;;;;;;;;;5045147;28;20402;-81
2022/05/09 01:36:31;;;;;;;20.43;17.77;;;;;;;;;;5045006;28;20746;-81
2022/05/09 01:39:03;;;;;;;21.77;17.77;;;;;;;;;;5044441;28;20435;-81
2022/05/09 01:41:35;;;;;;;22.70;19.30;;;;;;;;;;5046467;28;20419;-81
2022/05/09 01:44:01;;;;;;;22.13;18.07;;;;;;;;;;5045384;28;20434;-81
2022/05/09 01:46:29;;;;;;;26.90;20.60;;;;;;;;;;5045880;28;20402;-81
2022/05/09 01:51:41;;;;;;;27.80;19.53;;;;;;;;;;5040182;28;20438;-80
2022/05/09 01:54:07;;;;;;;23.80;19.90;;;;;;;;;;5032447;28;20427;-80
2022/05/09 01:56:34;;;;;;;31.90;21.00;;;;;;;;;;5033139;28;20407;-79
2022/05/09 01:59:01;;;;;;;24.50;21.20;;;;;;;;;;5033074;28;20446;-81
2022/05/09 02:01:29;;;;;;;25.97;21.70;;;;;;;;;;5032761;28;20426;-80
2022/05/09 02:03:55;;;;;;;24.70;20.87;;;;;;;;;;5029973;28;20451;-81
2022/05/09 02:06:21;;;;;;;29.50;22.10;;;;;;;;;;5025703;28;20454;-81
2022/05/09 02:08:48;;;;;;;27.53;21.10;;;;;;;;;;5025890;28;20475;-81
2022/05/09 02:11:14;;;;;;;27.20;21.23;;;;;;;;;;5025373;28;20495;-81
2022/05/09 02:13:40;;;;;;;28.17;22.07;;;;;;;;;;5026038;28;20443;-81
2022/05/09 02:16:07;;;;;;;25.80;20.90;;;;;;;;;;5025770;28;20427;-81
2022/05/09 02:18:33;;;;;;;27.33;22.03;;;;;;;;;;5025143;28;20451;-81
2022/05/09 02:21:00;;;;;;;28.93;21.93;;;;;;;;;;5024636;28;20411;-81
2022/05/09 02:23:26;;;;;;;27.60;22.17;;;;;;;;;;5024693;28;20814;-81
2022/05/09 02:25:53;;;;;;;30.13;23.50;;;;;;;;;;5024434;28;20795;-82
2022/05/09 02:28:21;;;;;;;29.57;21.33;;;;;;;;;;5024084;28;20450;-81
2022/05/09 02:30:48;;;;;;;32.63;24.27;;;;;;;;;;5023890;28;20411;-81
2022/05/09 02:33:14;;;;;;;29.30;23.90;;;;;;;;;;5024859;28;20480;-81
2022/05/09 02:35:40;;;;;;;29.50;22.77;;;;;;;;;;5023855;28;20888;-81
2022/05/09 02:38:07;;;;;;;27.80;23.80;;;;;;;;;;5024375;28;20927;-81
2022/05/09 02:40:36;;;;;;;29.37;23.30;;;;;;;;;;5024175;28;20411;-81
2022/05/09 02:43:02;;;;;;;34.53;22.43;;;;;;;;;;5023684;28;20959;-81
2022/05/09 02:45:29;;;;;;;24.07;19.83;;;;;;;;;;5023411;28;20411;-81
2022/05/09 02:47:55;;;;;;;25.00;22.10;;;;;;;;;;5023792;28;20419;-80
2022/05/09 02:50:22;;;;;;;26.43;21.13;;;;;;;;;;5022796;28;20412;-81
2022/05/09 02:52:49;;;;;;;24.70;20.00;;;;;;;;;;5023663;28;20408;-80
2022/05/09 02:55:15;;;;;;;24.00;20.37;;;;;;;;;;5023460;28;20424;-81
2022/05/09 02:57:42;;;;;;;31.13;19.93;;;;;;;;;;5023772;28;20487;-81
2022/05/09 03:00:10;;;;;;;22.07;19.53;;;;;;;;;;5023916;28;20410;-81
2022/05/09 03:02:36;;;;;;;27.83;22.67;;;;;;;;;;5023109;28;20404;-81
2022/05/09 03:05:02;;;;;;;23.23;20.70;;;;;;;;;;5023420;28;20414;-81
2022/05/09 03:07:28;;;;;;;25.90;21.97;;;;;;;;;;5024012;28;20789;-81
2022/05/09 03:09:54;;;;;;;24.47;20.07;;;;;;;;;;5023675;28;20403;-81
2022/05/09 03:12:20;;;;;;;25.03;21.87;;;;;;;;;;5025330;28;20919;-80
2022/05/09 03:14:47;;;;;;;29.40;23.17;;;;;;;;;;5024302;28;20884;-84
2022/05/09 03:17:13;;;;;;;28.80;22.37;;;;;;;;;;5023334;28;20450;-81
2022/05/09 03:19:40;;;;;;;29.60;23.10;;;;;;;;;;5024332;28;20435;-81
2022/05/09 03:22:06;;;;;;;30.47;25.30;;;;;;;;;;5023455;28;20407;-81
2022/05/09 03:24:33;;;;;;;32.53;25.70;;;;;;;;;;5024372;28;20439;-81
2022/05/09 03:27:01;;;;;;;32.90;26.47;;;;;;;;;;5024653;28;20430;-81
2022/05/09 03:29:28;;;;;;;33.30;27.93;;;;;;;;;;5014330;28;20439;-81
2022/05/09 03:31:54;;;;;;;35.60;27.20;;;;;;;;;;5020746;28;20412;-81
2022/05/09 03:34:20;;;;;;;33.43;25.87;;;;;;;;;;5023056;28;20431;-81
2022/05/09 03:36:46;;;;;;;33.77;27.20;;;;;;;;;;5022596;28;20457;-81
2022/05/09 03:39:12;;;;;;;35.60;25.60;;;;;;;;;;5023472;28;20414;-81
2022/05/09 03:41:38;;;;;;;39.77;28.57;;;;;;;;;;5023098;28;20411;-81
2022/05/09 03:44:05;;;;;;;33.50;27.23;;;;;;;;;;5023273;28;20454;-81
2022/05/09 03:46:31;;;;;;;32.23;24.80;;;;;;;;;;5022995;28;20434;-81
2022/05/09 03:48:57;;;;;;;31.50;22.70;;;;;;;;;;5024888;28;20420;-81
2022/05/09 03:51:23;;;;;;;29.90;23.43;;;;;;;;;;5026672;28;20443;-81
2022/05/09 03:53:50;;;;;;;30.13;23.77;;;;;;;;;;5026648;28;20399;-81
2022/05/09 03:56:16;;;;;;;30.80;23.53;;;;;;;;;;5027206;28;20407;-81
2022/05/09 03:58:42;;;;;;;31.70;24.03;;;;;;;;;;5026960;28;20459;-81
2022/05/09 04:01:08;;;;;;;31.03;23.43;;;;;;;;;;5026825;28;20408;-81
2022/05/09 04:03:34;;;;;;;31.07;25.80;;;;;;;;;;5026735;28;20455;-81
2022/05/09 04:06:01;;;;;;;40.00;29.37;;;;;;;;;;5029070;28;20388;-80
2022/05/09 04:08:27;;;;;;;32.30;25.23;;;;;;;;;;5035602;28;20529;-80
2022/05/09 04:10:55;;;;;;;31.03;24.13;;;;;;;;;;5031802;28;20399;-81
2022/05/09 04:13:21;;;;;;;27.33;22.80;;;;;;;;;;5027291;28;20407;-81
2022/05/09 04:18:40;;;;;;;30.10;24.50;;;;;;;;;;5024075;28;20488;-81
2022/05/09 04:21:08;;;;;;;28.10;23.90;;;;;;;;;;5046240;28;20417;-81
2022/05/09 04:23:34;;;;;;;33.50;25.57;;;;;;;;;;5045917;28;20969;-81
2022/05/09 04:26:00;;;;;;;27.20;23.60;;;;;;;;;;5046341;28;20406;-81
2022/05/09 04:28:26;;;;;;;29.77;25.93;;;;;;;;;;5045681;28;20787;-81
2022/05/09 04:30:53;;;;;;;27.53;24.50;;;;;;;;;;5046585;28;20425;-81
2022/05/09 04:33:20;;;;;;;28.77;23.20;;;;;;;;;;5040414;28;20490;-80
2022/05/09 04:35:46;;;;;;;34.17;25.83;;;;;;;;;;5039225;28;20468;-80
2022/05/09 04:38:14;;;;;;;32.17;24.60;;;;;;;;;;5039661;28;20927;-81
2022/05/09 04:40:41;;;;;;;31.30;24.93;;;;;;;;;;5038337;28;20407;-80
2022/05/09 04:43:07;;;;;;;28.60;23.90;;;;;;;;;;5042732;28;20522;-81
2022/05/09 04:45:33;;;;;;;29.80;24.10;;;;;;;;;;5042974;28;20409;-81
2022/05/09 04:48:00;;;;;;;31.97;24.73;;;;;;;;;;5044125;28;20506;-80
2022/05/09 04:50:27;;;;;;;32.67;24.60;;;;;;;;;;5041049;28;20883;-81
2022/05/09 04:52:53;;;;;;;29.40;25.43;;;;;;;;;;5043829;28;20414;-81
2022/05/09 04:55:19;;;;;;;31.60;25.93;;;;;;;;;;5043732;28;20410;-81
2022/05/09 04:57:48;;;;;;;32.97;25.80;;;;;;;;;;5044007;28;20485;-81
2022/05/09 05:00:15;;;;;;;30.03;24.40;;;;;;;;;;5043019;28;20403;-81
2022/05/09 05:02:42;;;;;;;26.00;22.57;;;;;;;;;;5050507;28;20414;-80
2022/05/09 05:05:08;;;;;;;27.47;23.30;;;;;;;;;;5049251;28;20478;-81
2022/05/09 05:07:34;;;;;;;25.43;22.30;;;;;;;;;;5073945;22;20442;-87
2022/05/09 05:10:01;;;;;;;26.10;21.63;;;;;;;;;;5010226;28;20515;-88
2022/05/09 05:12:27;;;;;;;26.23;22.13;;;;;;;;;;5019498;28;21002;-87
2022/05/09 05:14:53;;;;;;;23.20;20.80;;;;;;;;;;5021703;28;20396;-87
2022/05/09 05:17:19;;;;;;;22.83;19.03;;;;;;;;;;5021217;28;20398;-87
2022/05/09 05:19:45;;;;;;;24.40;19.83;;;;;;;;;;5021714;28;20403;-87
2022/05/09 05:22:14;;;;;;;22.07;19.33;;;;;;;;;;5021712;28;20903;-87
2022/05/09 05:24:43;;;;;;;25.03;21.57;;;;;;;;;;5021509;28;20455;-87
2022/05/09 05:27:10;;;;;;;24.93;20.50;;;;;;;;;;5022393;28;20407;-87
2022/05/09 05:29:36;;;;;;;22.80;20.37;;;;;;;;;;5022392;28;20958;-87
2022/05/09 05:32:13;;;;;;;22.60;20.00;;;;;;;;;;5022274;28;20395;-87
2022/05/09 05:34:39;;;;;;;25.73;20.20;;;;;;;;;;5022850;28;20818;-87
2022/05/09 05:37:05;;;;;;;30.00;20.50;;;;;;;;;;5022322;28;20434;-88
2022/05/09 05:39:34;;;;;;;25.60;20.97;;;;;;;;;;5031526;28;20798;-88
2022/05/09 05:42:00;;;;;;;25.77;21.00;;;;;;;;;;5030178;28;20426;-87
2022/05/09 05:44:26;;;;;;;25.13;21.73;;;;;;;;;;5026473;28;20447;-88
2022/05/09 05:46:52;;;;;;;28.20;23.07;;;;;;;;;;5023164;28;20411;-88
2022/05/09 05:49:18;;;;;;;26.30;20.70;;;;;;;;;;5020974;28;20428;-88
2022/05/09 05:51:44;;;;;;;25.67;21.37;;;;;;;;;;5021988;28;20407;-88
2022/05/09 05:54:10;;;;;;;31.10;23.70;;;;;;;;;;5024130;28;20820;-88
2022/05/09 05:56:37;;;;;;;31.00;21.80;;;;;;;;;;5020541;28;20942;-88
2022/05/09 05:59:04;;;;;;;31.90;24.10;;;;;;;;;;5021568;28;20462;-88
2022/05/09 06:01:33;;;;;;;33.00;24.70;;;;;;;;;;5021593;28;20775;-88
2022/05/09 06:04:00;;;;;;;33.40;25.43;;;;;;;;;;5021418;28;20955;-87
2022/05/09 06:06:26;;;;;;;40.10;25.40;;;;;;;;;;5021680;28;20403;-88
2022/05/09 06:08:53;;;;;;;33.30;25.10;;;;;;;;;;5021166;28;20817;-87
2022/05/09 06:11:19;;;;;;;33.83;25.73;;;;;;;;;;5026182;28;20407;-87
2022/05/09 06:13:45;;;;;;;32.80;24.27;;;;;;;;;;5028678;28;20400;-88
2022/05/09 06:16:11;;;;;;;30.73;23.93;;;;;;;;;;5022391;28;20400;-87
2022/05/09 06:18:37;;;;;;;34.63;26.37;;;;;;;;;;5023830;28;20426;-86
2022/05/09 06:21:03;;;;;;;34.17;25.20;;;;;;;;;;5028198;28;20407;-85
2022/05/09 06:23:29;;;;;;;34.00;27.00;;;;;;;;;;5025892;28;20546;-86
2022/05/09 06:25:56;;;;;;;30.50;25.30;;;;;;;;;;5025602;28;20412;-86
2022/05/09 06:28:23;;;;;;;32.40;24.93;;;;;;;;;;5014757;28;21096;-86
2022/05/09 06:30:50;;;;;;;30.13;25.60;;;;;;;;;;5007100;28;20457;-81
2022/05/09 06:33:23;;;;;;;32.87;25.00;;;;;;;;;;5016075;28;21050;-82
2022/05/09 06:35:50;;;;;;;31.57;22.20;;;;;;;;;;5011156;28;20430;-84
2022/05/09 06:38:17;;;;;;;29.93;23.80;;;;;;;;;;5029498;28;20451;-83
2022/05/09 06:40:43;;;;;;;29.30;23.13;;;;;;;;;;5018360;28;20780;-82
2022/05/09 06:43:10;;;;;;;23.33;19.07;;;;;;;;;;5019256;28;20454;-83
2022/05/09 06:45:36;;;;;;;25.07;22.37;;;;;;;;;;5016738;28;20461;-83
2022/05/09 06:48:02;;;;;;;29.70;24.00;;;;;;;;;;5018774;28;20446;-84
2022/05/09 06:50:38;;;;;;;28.70;22.67;;;;;;;;;;5020330;28;20423;-85
2022/05/09 06:53:05;;;;;;;31.60;23.93;;;;;;;;;;5016001;28;20507;-82
2022/05/09 06:55:31;;;;;;;30.33;24.47;;;;;;;;;;5020182;28;20423;-85
2022/05/09 06:57:57;;;;;;;27.70;23.87;;;;;;;;;;5022776;28;20998;-83
2022/05/09 07:00:24;;;;;;;28.03;22.83;;;;;;;;;;5021362;28;20415;-84
2022/05/09 07:02:51;;;;;;;38.33;25.57;;;;;;;;;;5026319;28;20404;-83
2022/05/09 07:05:18;;;;;;;32.20;23.10;;;;;;;;;;5023033;28;20447;-84
2022/05/09 07:07:45;;;;;;;27.30;21.60;;;;;;;;;;5016895;28;20549;-86
2022/05/09 07:10:12;;;;;;;26.80;23.03;;;;;;;;;;5015878;28;20427;-85
2022/05/09 07:12:43;;;;;;;28.13;23.30;;;;;;;;;;5018104;28;20494;-84
2022/05/09 07:15:09;;;;;;;26.00;22.27;;;;;;;;;;5021875;28;20475;-83
2022/05/09 07:17:35;;;;;;;29.50;23.03;;;;;;;;;;5026426;28;20427;-83
2022/05/09 07:20:01;;;;;;;24.27;19.63;;;;;;;;;;5022366;28;20419;-84
2022/05/09 07:22:27;;;;;;;26.73;21.70;;;;;;;;;;5023509;28;20426;-81
2022/05/09 07:24:53;;;;;;;23.57;20.93;;;;;;;;;;5015872;28;20497;-83
2022/05/09 07:27:20;;;;;;;23.93;21.10;;;;;;;;;;5014712;28;20430;-83
2022/05/09 07:29:46;;;;;;;22.77;20.37;;;;;;;;;;5039545;28;20419;-83
2022/05/09 07:32:12;;;;;;;24.13;20.03;;;;;;;;;;5038218;28;20421;-82
2022/05/09 07:34:38;;;;;;;22.87;20.53;;;;;;;;;;5029292;28;20418;-83
2022/05/09 07:37:04;;;;;;;21.60;19.27;;;;;;;;;;5033429;28;20433;-84
2022/05/09 07:39:31;;;;;;;22.48;20.17;;;;;;;;;;5026250;28;20415;-83
2022/05/09 07:41:57;;;;;;;18.93;16.90;;;;;;;;;;5026995;28;20186;-83
2022/05/09 07:44:23;;;;;;;21.73;19.43;;;;;;;;;;5030400;28;20986;-83
2022/05/09 07:46:49;;;;;;;22.35;20.15;;;;;;;;;;5018546;28;20426;-83
2022/05/09 07:49:15;;;;;;;22.73;19.07;;;;;;;;;;5023485;28;20220;-84
2022/05/09 07:51:42;;;;;;;19.83;17.83;;;;;;;;;;5038234;28;20411;-83
2022/05/09 07:54:09;;;;;;;19.40;17.40;;;;;;;;;;5049788;28;20403;-84
2022/05/09 07:56:37;;;;;;;20.40;17.83;;;;;;;;;;5023260;28;20419;-84
2022/05/09 07:59:04;;;;;;;18.47;16.30;;;;;;;;;;5022217;28;20434;-88
2022/05/09 08:01:30;;;;;;;18.67;16.73;;;;;;;;;;5022382;28;20954;-88
2022/05/09 08:03:58;;;;;;;18.40;16.30;;;;;;;;;;5045679;28;20508;-87
2022/05/09 08:06:24;;;;;;;18.83;16.40;;;;;;;;;;5053929;28;20434;-87
2022/05/09 08:08:51;;;;;;;18.27;16.17;;;;;;;;;;5037597;28;20478;-86
2022/05/09 08:11:17;;;;;;;20.80;16.50;;;;;;;;;;5050425;28;20435;-86
2022/05/09 08:13:44;;;;;;;18.33;16.47;;;;;;;;;;5061689;28;20460;-87
2022/05/09 08:16:10;;;;;;;18.60;16.65;;;;;;;;;;5023786;28;20444;-87
2022/05/09 08:18:37;;;;;;;21.67;17.57;;;;;;;;;;5023283;28;20195;-87
2022/05/09 08:21:04;;;;;;;21.63;16.50;;;;;;;;;;5027904;28;20499;-87
2022/05/09 08:23:31;;;;;;;21.40;17.00;;;;;;;;;;5024222;28;20514;-87
2022/05/09 08:25:58;;;;;;;20.47;16.10;;;;;;;;;;5022254;28;20403;-87
2022/05/09 08:28:24;;;;;;;18.90;16.87;;;;;;;;;;5031855;28;20422;-87
2022/05/09 08:30:52;;;;;;;18.70;16.23;;;;;;;;;;5043572;28;20470;-87
2022/05/09 08:33:24;;;;;;;22.20;17.50;;;;;;;;;;5029094;28;20769;-89
2022/05/09 08:35:51;;;;;;;17.10;15.30;;;;;;;;;;5040065;28;20410;-89
2022/05/09 08:38:19;;;;;;;17.80;14.97;;;;;;;;;;5031442;28;20430;-87
2022/05/09 08:40:49;;;;;;;18.25;16.45;;;;;;;;;;5048372;28;20422;-87
2022/05/09 08:43:22;;;;;;;19.80;17.13;;;;;;;;;;5024457;28;20200;-88
2022/05/09 08:45:53;;;;;;;18.00;15.97;;;;;;;;;;5040020;28;20405;-87
2022/05/09 08:48:25;;;;;;;17.23;15.40;;;;;;;;;;5041182;28;20432;-88
2022/05/09 08:51:08;;;;;;;17.50;15.63;;;;;;;;;;5032263;28;20440;-87
2022/05/09 08:53:37;;;;;;;17.83;16.13;;;;;;;;;;5043016;28;20430;-88
2022/05/09 08:56:04;;;;;;;20.20;15.80;;;;;;;;;;5029661;28;20591;-88
2022/05/09 08:58:40;;;;;;;15.63;13.90;;;;;;;;;;5036690;28;20429;-88
2022/05/09 09:01:12;;;;;;;20.13;14.30;;;;;;;;;;5038592;28;20446;-87
2022/05/09 09:03:39;;;;;;;15.23;13.70;;;;;;;;;;5025884;28;20455;-87
2022/05/09 09:06:11;;;;;;;14.20;12.77;;;;;;;;;;5042177;28;20434;-87
2022/05/09 09:08:38;;;;;;;15.10;13.60;;;;;;;;;;5029389;28;20414;-88
2022/05/09 09:11:14;;;;;;;15.40;13.80;;;;;;;;;;5028415;28;20784;-88
2022/05/09 09:13:59;;;;;;;14.27;12.77;;;;;;;;;;5011494;28;20586;-89
2022/05/09 09:16:31;;;;;;;12.63;11.47;;;;;;;;;;5032751;28;20560;-88
2022/05/09 09:19:09;;;;;;;14.00;12.50;;;;;;;;;;5023789;28;20426;-89
2022/05/09 09:21:38;;;;;;;13.43;12.20;;;;;;;;;;5024788;28;20190;-89
2022/05/09 09:24:23;;;;;;;14.10;12.70;;;;;;;;;;5043154;28;20597;-87
2022/05/09 09:27:12;;;;;;;16.05;12.70;;;;;;;;;;5014412;28;20411;-88
2022/05/09 09:29:42;;;;;;;12.48;11.02;;;;;;;;;;5000768;28;20438;-89
2022/05/09 09:32:13;;;;;;;13.33;10.77;;;;;;;;;;5021836;28;20180;-89
2022/05/09 09:34:45;;;;;;;11.20;10.20;;;;;;;;;;5029128;28;20493;-89
2022/05/09 09:37:13;;;;;;;13.57;9.77;;;;;;;;;;5019724;28;20431;-90
2022/05/09 09:39:40;;;;;;;10.97;9.87;;;;;;;;;;5033601;28;20498;-88
2022/05/09 09:42:06;;;;;;;10.00;9.10;;;;;;;;;;5024461;28;20946;-89
2022/05/09 09:44:34;;;;;;;10.40;9.40;;;;;;;;;;5022884;28;20451;-88
2022/05/09 09:47:06;;;;;;;11.03;9.70;;;;;;;;;;5034759;28;20406;-88
2022/05/09 09:49:34;;;;;;;11.43;9.13;;;;;;;;;;5028540;28;20439;-86
2022/05/09 09:52:00;;;;;;;21.13;9.07;;;;;;;;;;5024634;28;20859;-85
2022/05/09 09:54:29;;;;;;;11.70;10.47;;;;;;;;;;5026139;28;20966;-90
2022/05/09 09:56:55;;;;;;;13.13;9.53;;;;;;;;;;5025708;28;20419;-86
2022/05/09 09:59:23;;;;;;;11.60;9.27;;;;;;;;;;5047546;28;20446;-85
2022/05/09 10:02:06;;;;;;;10.23;9.33;;;;;;;;;;5035941;28;20725;-87
2022/05/09 10:04:33;;;;;;;9.77;8.33;;;;;;;;;;5044478;28;20453;-89
2022/05/09 10:07:02;;;;;;;9.20;8.30;;;;;;;;;;5032192;28;20412;-89
2022/05/09 10:09:29;;;;;;;8.67;7.73;;;;;;;;;;5004215;28;20444;-87
2022/05/09 10:12:13;;;;;;;12.10;8.70;;;;;;;;;;5036299;28;20396;-86
2022/05/09 10:14:39;;;;;;;10.57;9.50;;;;;;;;;;5004807;28;20431;-85
2022/05/09 10:17:14;;;;;;;9.17;8.27;;;;;;;;;;5015197;28;20427;-86
2022/05/09 10:19:41;;;;;;;14.53;8.60;;;;;;;;;;5026763;28;20419;-87
2022/05/09 10:25:04;;;;;;;11.03;8.97;;;;;;;;;;5023757;28;20539;-85
2022/05/09 10:27:31;;;;;;;11.60;8.70;;;;;;;;;;5042269;28;20395;-86
2022/05/09 10:30:22;;;;;;;10.57;9.43;;;;;;;;;;5026475;28;20426;-86
2022/05/09 10:32:51;;;;;;;9.00;8.10;;;;;;;;;;5026846;28;20468;-87
2022/05/09 10:35:22;;;;;;;12.10;9.20;;;;;;;;;;5034224;28;20415;-87
2022/05/09 10:37:48;;;;;;;11.13;9.47;;;;;;;;;;5041861;28;20446;-85
2022/05/09 10:40:14;;;;;;;9.90;8.97;;;;;;;;;;5027551;28;20430;-86
2022/05/09 10:42:43;;;;;;;9.47;8.67;;;;;;;;;;5029747;28;20501;-88
2022/05/09 10:45:14;;;;;;;8.77;7.97;;;;;;;;;;5023896;28;20415;-88
2022/05/09 10:47:43;;;;;;;8.83;8.00;;;;;;;;;;5027271;28;20439;-87
2022/05/09 10:50:19;;;;;;;10.00;7.95;;;;;;;;;;5031822;28;20478;-86
2022/05/09 10:52:48;;;;;;;8.77;7.83;;;;;;;;;;5027225;28;20171;-86
2022/05/09 10:55:33;;;;;;;9.13;8.23;;;;;;;;;;5025108;28;20993;-87
2022/05/09 10:58:10;;;;;;;11.00;9.00;;;;;;;;;;5017621;28;21017;-85
2022/05/09 11:00:40;;;;;;;9.00;8.10;;;;;;;;;;5012621;28;20419;-87
2022/05/09 11:03:09;;;;;;;9.47;8.53;;;;;;;;;;5011485;28;20287;-85
2022/05/09 11:05:59;;;;;;;8.87;8.07;;;;;;;;;;5015572;28;20842;-85
2022/05/09 11:08:35;;;;;;;9.20;8.40;;;;;;;;;;5025384;28;20462;-86
2022/05/09 11:11:01;;;;;;;11.13;8.93;;;;;;;;;;5046383;28;20763;-84
2022/05/09 11:13:41;;;;;;;8.90;8.10;;;;;;;;;;5045668;28;20410;-86
2022/05/09 11:16:28;;;;;;;7.80;7.00;;;;;;;;;;5051543;28;20399;-86
2022/05/09 11:19:06;;;;;;;9.07;8.23;;;;;;;;;;5033623;28;20422;-86
2022/05/09 11:21:41;;;;;;;10.07;8.60;;;;;;;;;;5024712;28;20406;-88
2022/05/09 11:24:15;;;;;;;8.90;7.97;;;;;;;;;;5025254;28;20445;-85
2022/05/09 11:26:53;;;;;;;9.73;8.30;;;;;;;;;;5030910;28;20402;-86
2022/05/09 11:29:23;;;;;;;8.17;7.37;;;;;;;;;;5040209;28;20457;-87
2022/05/09 11:31:49;;;;;;;8.63;7.83;;;;;;;;;;5021446;28;20749;-84
2022/05/09 11:34:33;;;;;;;8.40;7.60;;;;;;;;;;5037085;28;20469;-86
2022/05/09 11:37:19;;;;;;;10.03;7.80;;;;;;;;;;5030025;28;20411;-87
2022/05/09 11:39:57;;;;;;;8.40;7.20;;;;;;;;;;5013149;28;20420;-88
2022/05/09 11:45:33;;;;;;;8.53;6.57;;;;;;;;;;5022169;28;20501;-86
2022/05/09 11:48:15;;;;;;;9.27;7.33;;;;;;;;;;5007545;28;20419;-87
2022/05/09 11:50:41;;;;;;;10.13;6.20;;;;;;;;;;5037814;28;20417;-86
2022/05/09 11:53:07;;;;;;;6.53;5.83;;;;;;;;;;5027224;28;20772;-86
2022/05/09 11:55:34;;;;;;;12.33;6.90;;;;;;;;;;5036628;28;20903;-86
2022/05/09 11:58:02;;;;;;;7.23;6.53;;;;;;;;;;5024314;28;20466;-86
2022/05/09 12:00:28;;;;;;;6.90;5.73;;;;;;;;;;5031149;28;20419;-87
2022/05/09 12:02:56;;;;;;;5.87;5.37;;;;;;;;;;5023316;28;20968;-87
2022/05/09 12:05:33;;;;;;;9.23;5.97;;;;;;;;;;5020355;28;20414;-87
2022/05/09 12:08:05;;;;;;;9.83;6.27;;;;;;;;;;5005408;28;20449;-88
2022/05/09 12:10:35;;;;;;;7.03;6.33;;;;;;;;;;5042870;28;20437;-85
2022/05/09 12:13:21;;;;;;;6.17;5.50;;;;;;;;;;5039904;28;20422;-85
2022/05/09 12:15:49;;;;;;;7.80;5.70;;;;;;;;;;5020260;28;20415;-86
2022/05/09 12:18:23;;;;;;;8.47;5.87;;;;;;;;;;5030165;28;20577;-87
2022/05/09 12:20:49;;;;;;;7.30;5.53;;;;;;;;;;5035259;28;20407;-86
2022/05/09 12:23:33;;;;;;;8.20;6.20;;;;;;;;;;5039968;28;20461;-87
2022/05/09 12:26:05;;;;;;;7.30;5.37;;;;;;;;;;5018203;28;20439;-87
2022/05/09 12:28:36;;;;;;;7.07;6.37;;;;;;;;;;5006229;28;20471;-89
2022/05/09 12:31:21;;;;;;;5.73;5.23;;;;;;;;;;5029194;28;20418;-88
2022/05/09 12:33:47;;;;;;;12.37;4.90;;;;;;;;;;5041305;28;20478;-88
2022/05/09 12:36:15;;;;;;;6.60;5.80;;;;;;;;;;5032828;28;20418;-88
2022/05/09 12:38:42;;;;;;;6.07;5.47;;;;;;;;;;5032971;28;20437;-88
2022/05/09 12:41:16;;;;;;;5.70;5.10;;;;;;;;;;5041332;28;20406;-87
2022/05/09 12:43:44;;;;;;;5.40;4.90;;;;;;;;;;5025650;28;20446;-88
2022/05/09 12:46:20;;;;;;;6.23;5.53;;;;;;;;;;5027971;28;20403;-87
2022/05/09 12:48:47;;;;;;;6.97;5.60;;;;;;;;;;5027412;28;20526;-88
2022/05/09 12:51:13;;;;;;;6.13;5.53;;;;;;;;;;5056130;28;20414;-88
2022/05/09 12:53:41;;;;;;;9.23;5.87;;;;;;;;;;5029440;28;20407;-87
2022/05/09 12:56:08;;;;;;;5.70;5.10;;;;;;;;;;5035062;28;20419;-88
2022/05/09 12:58:36;;;;;;;8.23;6.10;;;;;;;;;;5046562;28;20438;-87
2022/05/09 13:01:14;;;;;;;6.30;5.70;;;;;;;;;;5045401;28;20938;-88
2022/05/09 13:03:48;;;;;;;9.97;6.17;;;;;;;;;;5042031;28;20455;-87
2022/05/09 13:06:16;;;;;;;6.73;5.90;;;;;;;;;;5040551;28;20435;-88
2022/05/09 13:08:43;;;;;;;12.60;5.47;;;;;;;;;;5026873;28;20454;-87
2022/05/09 13:11:14;;;;;;;9.80;5.30;;;;;;;;;;5026716;28;20419;-88
2022/05/09 13:13:42;;;;;;;10.33;6.13;;;;;;;;;;5009088;28;20928;-87
2022/05/09 13:16:09;;;;;;;5.00;4.50;;;;;;;;;;5038244;28;20415;-89
2022/05/09 13:18:36;;;;;;;8.63;6.43;;;;;;;;;;5026210;28;20481;-88
2022/05/09 13:21:08;;;;;;;6.47;5.87;;;;;;;;;;5016789;28;20440;-87
2022/05/09 13:23:37;;;;;;;7.83;6.33;;;;;;;;;;5036317;28;20450;-87
2022/05/09 13:26:07;;;;;;;9.97;5.70;;;;;;;;;;5042134;28;20422;-87
2022/05/09 13:28:43;;;;;;;5.13;4.67;;;;;;;;;;5035822;28;20840;-87
2022/05/09 13:31:09;;;;;;;7.87;5.83;;;;;;;;;;5035464;28;20430;-87
2022/05/09 13:33:35;;;;;;;7.00;6.30;;;;;;;;;;5040715;28;20809;-88
2022/05/09 13:36:03;;;;;;;6.40;5.80;;;;;;;;;;5023887;28;20422;-87
2022/05/09 13:38:40;;;;;;;7.90;6.10;;;;;;;;;;5033658;28;20454;-88
2022/05/09 13:41:19;;;;;;;11.70;6.57;;;;;;;;;;5020383;28;20475;-88
2022/05/09 13:43:50;;;;;;;8.70;6.10;;;;;;;;;;5037048;28;20459;-88
2022/05/09 13:46:36;;;;;;;6.70;5.40;;;;;;;;;;5011727;28;20418;-88
2022/05/09 13:49:04;;;;;;;5.67;4.87;;;;;;;;;;5022089;28;20496;-88
2022/05/09 13:51:32;;;;;;;7.07;6.30;;;;;;;;;;5040811;28;20466;-88
2022/05/09 13:54:00;;;;;;;6.13;5.43;;;;;;;;;;5022970;28;20494;-88
2022/05/09 13:56:27;;;;;;;6.03;5.10;;;;;;;;;;5024505;28;20423;-88
2022/05/09 13:58:56;;;;;;;5.87;4.67;;;;;;;;;;5035061;28;20437;-87
2022/05/09 14:01:25;;;;;;;6.13;5.50;;;;;;;;;;5028791;28;20470;-88
2022/05/09 14:03:54;;;;;;;10.47;5.90;;;;;;;;;;5039145;28;20450;-87
2022/05/09 14:06:28;;;;;;;6.43;5.83;;;;;;;;;;5021194;28;20518;-88
2022/05/09 14:09:03;;;;;;;7.83;5.10;;;;;;;;;;5031608;28;20865;-87
2022/05/09 14:11:34;;;;;;;6.87;5.80;;;;;;;;;;5040662;28;20410;-87
2022/05/09 14:14:00;;;;;;;7.83;5.50;;;;;;;;;;5019084;28;20399;-88
2022/05/09 14:16:34;;;;;;;6.07;5.27;;;;;;;;;;5036194;28;20411;-87
2022/05/09 14:19:09;;;;;;;6.93;5.40;;;;;;;;;;5037210;28;20438;-86
2022/05/09 14:21:42;;;;;;;5.00;4.50;;;;;;;;;;5058198;28;20390;-90
2022/05/09 14:24:10;;;;;;;5.83;4.73;;;;;;;;;;5054605;28;20446;-87
2022/05/09 14:29:36;;;;;;;7.47;4.87;;;;;;;;;;5035323;28;20426;-86
2022/05/09 14:32:08;;;;;;;5.90;4.83;;;;;;;;;;5006092;28;20386;-86
2022/05/09 14:34:38;;;;;;;6.23;5.00;;;;;;;;;;5030548;28;20422;-87
2022/05/09 14:37:39;;;;;;;7.53;5.00;;;;;;;;;;5031641;28;20414;-86
2022/05/09 14:40:05;;;;;;;5.67;5.07;;;;;;;;;;4949521;29;20430;-87
2022/05/09 14:42:33;;;;;;;5.50;4.83;;;;;;;;;;5011380;28;20477;-86
2022/05/09 14:45:02;;;;;;;5.07;4.23;;;;;;;;;;5025135;28;20450;-85
2022/05/09 14:47:31;;;;;;;9.93;5.23;;;;;;;;;;5006787;28;20431;-84
2022/05/09 14:50:07;;;;;;;7.30;4.88;;;;;;;;;;5024758;28;20778;-86